Ital Oriente — A8LN2 — position and weather

sailwx.info

Track history (hours):
 
Tides and Currents Weather Stations Pressure Air Temp Water Temp Dewpoint Dewpoint Depression Visibility Wind Speed Wind Dir Waves Ship Positions

Ital Oriente

Last reported at 2015-Aug-28 22:07 UTC. Time now 2015-Aug-31 04:48 UTC.
Position N 37°37' E 024°09'.

Length 222 m; draft 9 m.

Type: Cargo ship. MMSI: 636091278.

Date/timePositionNaut miles runAvg speedWind from/ knotsBaromVisibWave heightAir tempDewpointWater temp
2015-Aug-28 22:07N 37°37' E 024°09'1217.0
2015-Aug-28 21:25N 37°36' E 023°54'1315.6
2015-Aug-28 20:33N 37°44' E 023°40'1414.0
2015-Aug-28 19:34N 37°57' E 023°35'0 0.3
2015-Aug-28 18:31N 37°57' E 023°35'0 0.0
2015-Aug-28 17:31N 37°57' E 023°35'0 0.0
2015-Aug-28 16:31N 37°57' E 023°35'0 0.0
2015-Aug-28 15:31N 37°57' E 023°35'0 0.0
2015-Aug-28 14:31N 37°57' E 023°35'0 0.0
2015-Aug-28 13:31N 37°57' E 023°35'0 0.0
2015-Aug-28 12:31N 37°57' E 023°35'0 0.0
2015-Aug-28 11:31N 37°57' E 023°35'0 0.0
2015-Aug-28 10:31N 37°57' E 023°35'0 0.0
2015-Aug-28 09:31N 37°57' E 023°35'0 0.0
2015-Aug-28 08:31N 37°57' E 023°35'0 0.0
2015-Aug-28 07:31N 37°57' E 023°35'0 0.0
2015-Aug-28 06:31N 37°57' E 023°35'0 0.0
2015-Aug-28 05:31N 37°57' E 023°35'0 0.0
2015-Aug-28 04:31N 37°57' E 023°35'0 0.0
2015-Aug-28 03:31N 37°57' E 023°35'0 0.0
2015-Aug-28 02:31N 37°57' E 023°35'0 0.0
2015-Aug-28 01:31N 37°57' E 023°35'0 0.0
2015-Aug-28 00:31N 37°57' E 023°35'0 0.0
2015-Aug-27 23:31N 37°57' E 023°35'0 0.0
2015-Aug-27 22:31N 37°57' E 023°35'0 0.0
2015-Aug-27 21:31N 37°57' E 023°35'0 0.0
2015-Aug-27 20:31N 37°57' E 023°35'0 0.0
2015-Aug-27 19:31N 37°57' E 023°35'0 0.0
2015-Aug-27 18:31N 37°57' E 023°35'0 0.0
2015-Aug-27 17:31N 37°57' E 023°35'0 0.0
2015-Aug-27 16:31N 37°57' E 023°35'0 0.0
2015-Aug-27 15:31N 37°57' E 023°35'0 0.0
2015-Aug-27 14:31N 37°57' E 023°35'0 0.0
2015-Aug-27 13:31N 37°57' E 023°35'0 0.0
2015-Aug-27 12:31N 37°57' E 023°35'0 0.0
2015-Aug-27 11:31N 37°57' E 023°35'0 0.0
2015-Aug-27 10:31N 37°57' E 023°35'0 0.0
2015-Aug-27 09:31N 37°57' E 023°35'0 0.0
2015-Aug-27 08:31N 37°57' E 023°35'0 0.0
2015-Aug-27 07:31N 37°57' E 023°35'0 0.0
2015-Aug-27 06:31N 37°57' E 023°35'0 0.0
2015-Aug-27 05:31N 37°57' E 023°35'0 0.0
2015-Aug-27 04:31N 37°57' E 023°35'3 2.6
2015-Aug-27 03:34N 37°55' E 023°36'6 5.9
2015-Aug-27 02:34N 37°50' E 023°40'6 5.8
2015-Aug-27 01:33N 37°45' E 023°43'6 5.6
2015-Aug-27 00:34N 37°40' E 023°47'6 5.9
2015-Aug-26 23:33N 37°37' E 023°54'6 6.0
2015-Aug-26 22:32N 37°35' E 024°01'19 8.7
2015-Aug-26 20:22N 37°46' E 024°21'9 8.0
2015-Aug-26 19:16N 37°52' E 024°29'26 8.4
2015-Aug-26 16:09N 38°18' E 024°31'  
2015-Aug-22 17:07N 40°27' E 028°38'1620.9
2015-Aug-22 16:21N 40°25' E 028°59'5 0.8
2015-Aug-22 10:21N 40°25' E 029°05'0 0.0
2015-Aug-22 09:33N 40°25' E 029°05'0 0.0
2015-Aug-22 08:27N 40°25' E 029°05'0 0.0
2015-Aug-22 07:21N 40°25' E 029°05'0 0.0
2015-Aug-22 06:33N 40°25' E 029°05'0 0.0
2015-Aug-22 05:21N 40°25' E 029°05'0 0.0
2015-Aug-22 04:33N 40°25' E 029°05'2 1.7
2015-Aug-22 03:31N 40°26' E 029°03'1 1.1
2015-Aug-22 02:33N 40°26' E 029°02'15 4.6
2015-Aug-21 23:21N 40°30' E 028°43'1 1.5
2015-Aug-21 22:31N 40°29' E 028°42'1 1.1
2015-Aug-21 21:32N 40°30' E 028°43'9 8.9
2015-Aug-21 20:33N 40°38' E 028°48'1110.5
2015-Aug-21 19:33N 40°42' E 029°01'1110.9
2015-Aug-21 18:33N 40°44' E 029°15'1111.3
2015-Aug-21 17:33N 40°45' E 029°30'11 0.9
2015-Aug-21 05:30N 40°43' E 029°16'0 0.3
2015-Aug-21 04:24N 40°44' E 029°16'0 0.4
2015-Aug-21 03:25N 40°44' E 029°16'3 4.0
2015-Aug-21 02:33N 40°45' E 029°12'5 5.0
2015-Aug-21 01:33N 40°46' E 029°05'8 8.0
2015-Aug-21 00:33N 40°48' E 028°55'8 8.2
2015-Aug-20 23:32N 40°52' E 028°45'6 0.5
2015-Aug-20 10:20N 40°56' E 028°39'7 9.1
2015-Aug-20 09:33N 40°50' E 028°34'27115.0
2015-Aug-19 15:26N 37°44' E 024°19'1817.3
2015-Aug-19 14:23N 37°35' E 023°59'1517.8
2015-Aug-19 13:33N 37°41' E 023°42'1716.6
2015-Aug-19 12:33N 37°57' E 023°36'1 0.6
2015-Aug-19 11:31N 37°57' E 023°35'0 0.0
2015-Aug-19 10:31N 37°57' E 023°35'0 0.0
2015-Aug-19 09:31N 37°57' E 023°35'0 0.0
2015-Aug-19 08:31N 37°57' E 023°35'0 0.0
2015-Aug-19 07:31N 37°57' E 023°35'0 0.0
2015-Aug-19 06:31N 37°57' E 023°35'0 0.0
2015-Aug-19 05:31N 37°57' E 023°35'0 0.0
2015-Aug-19 04:31N 37°57' E 023°35'0 0.0
2015-Aug-19 03:31N 37°57' E 023°35'0 0.0
2015-Aug-19 02:31N 37°57' E 023°35'0 0.0
2015-Aug-19 01:31N 37°57' E 023°35'0 0.0
2015-Aug-19 00:31N 37°57' E 023°35'0 0.0
2015-Aug-18 23:31N 37°57' E 023°35'0 0.0
2015-Aug-18 22:31N 37°57' E 023°35'  
Track history (hours):
 
Tides and Currents Weather Stations Pressure Air Temp Water Temp Dewpoint Dewpoint Depression Visibility Wind Speed Wind Dir Waves Ship Positions

Ital Oriente

Last reported at 2015-Aug-28 22:07 UTC. Time now 2015-Aug-31 04:48 UTC.
Position N 37°37' E 024°09'.

Length 222 m; draft 9 m.

Type: Cargo ship. MMSI: 636091278.

Date/timePositionNaut miles runAvg speedWind from/ knotsBaromVisibWave heightAir tempDewpointWater temp
2015-Aug-28 22:07N 37°37' E 024°09'1217.0
2015-Aug-28 21:25N 37°36' E 023°54'1315.6
2015-Aug-28 20:33N 37°44' E 023°40'1414.0
2015-Aug-28 19:34N 37°57' E 023°35'0 0.3
2015-Aug-28 18:31N 37°57' E 023°35'0 0.0
2015-Aug-28 17:31N 37°57' E 023°35'0 0.0
2015-Aug-28 16:31N 37°57' E 023°35'0 0.0
2015-Aug-28 15:31N 37°57' E 023°35'0 0.0
2015-Aug-28 14:31N 37°57' E 023°35'0 0.0
2015-Aug-28 13:31N 37°57' E 023°35'0 0.0
2015-Aug-28 12:31N 37°57' E 023°35'0 0.0
2015-Aug-28 11:31N 37°57' E 023°35'0 0.0
2015-Aug-28 10:31N 37°57' E 023°35'0 0.0
2015-Aug-28 09:31N 37°57' E 023°35'0 0.0
2015-Aug-28 08:31N 37°57' E 023°35'0 0.0
2015-Aug-28 07:31N 37°57' E 023°35'0 0.0
2015-Aug-28 06:31N 37°57' E 023°35'0 0.0
2015-Aug-28 05:31N 37°57' E 023°35'0 0.0
2015-Aug-28 04:31N 37°57' E 023°35'0 0.0
2015-Aug-28 03:31N 37°57' E 023°35'0 0.0
2015-Aug-28 02:31N 37°57' E 023°35'0 0.0
2015-Aug-28 01:31N 37°57' E 023°35'0 0.0
2015-Aug-28 00:31N 37°57' E 023°35'0 0.0
2015-Aug-27 23:31N 37°57' E 023°35'0 0.0
2015-Aug-27 22:31N 37°57' E 023°35'0 0.0
2015-Aug-27 21:31N 37°57' E 023°35'0 0.0
2015-Aug-27 20:31N 37°57' E 023°35'0 0.0
2015-Aug-27 19:31N 37°57' E 023°35'0 0.0
2015-Aug-27 18:31N 37°57' E 023°35'0 0.0
2015-Aug-27 17:31N 37°57' E 023°35'0 0.0
2015-Aug-27 16:31N 37°57' E 023°35'0 0.0
2015-Aug-27 15:31N 37°57' E 023°35'0 0.0
2015-Aug-27 14:31N 37°57' E 023°35'0 0.0
2015-Aug-27 13:31N 37°57' E 023°35'0 0.0
2015-Aug-27 12:31N 37°57' E 023°35'0 0.0
2015-Aug-27 11:31N 37°57' E 023°35'0 0.0
2015-Aug-27 10:31N 37°57' E 023°35'0 0.0
2015-Aug-27 09:31N 37°57' E 023°35'0 0.0
2015-Aug-27 08:31N 37°57' E 023°35'0 0.0
2015-Aug-27 07:31N 37°57' E 023°35'0 0.0
2015-Aug-27 06:31N 37°57' E 023°35'0 0.0
2015-Aug-27 05:31N 37°57' E 023°35'0 0.0
2015-Aug-27 04:31N 37°57' E 023°35'3 2.6
2015-Aug-27 03:34N 37°55' E 023°36'6 5.9
2015-Aug-27 02:34N 37°50' E 023°40'6 5.8
2015-Aug-27 01:33N 37°45' E 023°43'6 5.6
2015-Aug-27 00:34N 37°40' E 023°47'6 5.9
2015-Aug-26 23:33N 37°37' E 023°54'6 6.0
2015-Aug-26 22:32N 37°35' E 024°01'19 8.7
2015-Aug-26 20:22N 37°46' E 024°21'9 8.0
2015-Aug-26 19:16N 37°52' E 024°29'26 8.4
2015-Aug-26 16:09N 38°18' E 024°31'  
2015-Aug-22 17:07N 40°27' E 028°38'1620.9
2015-Aug-22 16:21N 40°25' E 028°59'5 0.8
2015-Aug-22 10:21N 40°25' E 029°05'0 0.0
2015-Aug-22 09:33N 40°25' E 029°05'0 0.0
2015-Aug-22 08:27N 40°25' E 029°05'0 0.0
2015-Aug-22 07:21N 40°25' E 029°05'0 0.0
2015-Aug-22 06:33N 40°25' E 029°05'0 0.0
2015-Aug-22 05:21N 40°25' E 029°05'0 0.0
2015-Aug-22 04:33N 40°25' E 029°05'2 1.7
2015-Aug-22 03:31N 40°26' E 029°03'1 1.1
2015-Aug-22 02:33N 40°26' E 029°02'15 4.6
2015-Aug-21 23:21N 40°30' E 028°43'1 1.5
2015-Aug-21 22:31N 40°29' E 028°42'1 1.1
2015-Aug-21 21:32N 40°30' E 028°43'9 8.9
2015-Aug-21 20:33N 40°38' E 028°48'1110.5
2015-Aug-21 19:33N 40°42' E 029°01'1110.9
2015-Aug-21 18:33N 40°44' E 029°15'1111.3
2015-Aug-21 17:33N 40°45' E 029°30'11 0.9
2015-Aug-21 05:30N 40°43' E 029°16'0 0.3
2015-Aug-21 04:24N 40°44' E 029°16'0 0.4
2015-Aug-21 03:25N 40°44' E 029°16'3 4.0
2015-Aug-21 02:33N 40°45' E 029°12'5 5.0
2015-Aug-21 01:33N 40°46' E 029°05'8 8.0
2015-Aug-21 00:33N 40°48' E 028°55'8 8.2
2015-Aug-20 23:32N 40°52' E 028°45'6 0.5
2015-Aug-20 10:20N 40°56' E 028°39'7 9.1
2015-Aug-20 09:33N 40°50' E 028°34'27115.0
2015-Aug-19 15:26N 37°44' E 024°19'1817.3
2015-Aug-19 14:23N 37°35' E 023°59'1517.8
2015-Aug-19 13:33N 37°41' E 023°42'1716.6
2015-Aug-19 12:33N 37°57' E 023°36'1 0.6
2015-Aug-19 11:31N 37°57' E 023°35'0 0.0
2015-Aug-19 10:31N 37°57' E 023°35'0 0.0
2015-Aug-19 09:31N 37°57' E 023°35'0 0.0
2015-Aug-19 08:31N 37°57' E 023°35'0 0.0
2015-Aug-19 07:31N 37°57' E 023°35'0 0.0
2015-Aug-19 06:31N 37°57' E 023°35'0 0.0
2015-Aug-19 05:31N 37°57' E 023°35'0 0.0
2015-Aug-19 04:31N 37°57' E 023°35'0 0.0
2015-Aug-19 03:31N 37°57' E 023°35'0 0.0
2015-Aug-19 02:31N 37°57' E 023°35'0 0.0
2015-Aug-19 01:31N 37°57' E 023°35'0 0.0
2015-Aug-19 00:31N 37°57' E 023°35'0 0.0
2015-Aug-18 23:31N 37°57' E 023°35'0 0.0
2015-Aug-18 22:31N 37°57' E 023°35'  

Dump ship's entire track history